createdAt,value
2019-05-07T00:00:32.870Z,6.42
2019-05-07T00:03:03.295Z,8.58
2019-05-07T00:05:33.178Z,12.18
2019-05-07T00:08:08.400Z,10.23
2019-05-07T00:10:37.825Z,9.93
2019-05-07T00:13:07.510Z,11.18
2019-05-07T00:15:36.107Z,12.23
2019-05-07T00:18:04.826Z,9.08
2019-05-07T00:20:33.575Z,8.78
2019-05-07T00:23:05.763Z,13.50
2019-05-07T00:25:34.638Z,8.00
2019-05-07T00:28:06.290Z,8.05
2019-05-07T00:30:34.957Z,9.00
2019-05-07T00:33:03.946Z,7.08
2019-05-07T00:35:42.796Z,4.28
2019-05-07T00:38:15.898Z,4.83
2019-05-07T00:40:47.308Z,5.45
2019-05-07T00:43:17.612Z,3.90
2019-05-07T00:45:52.833Z,5.42
2019-05-07T00:48:23.280Z,4.78
2019-05-07T00:50:53.209Z,6.95
2019-05-07T00:53:23.640Z,8.48
2019-05-07T00:55:52.686Z,9.58
2019-05-07T00:58:26.288Z,10.40
2019-05-07T01:00:53.165Z,10.78
2019-05-07T01:03:22.299Z,9.18
2019-05-07T01:05:52.753Z,6.30
2019-05-07T01:08:22.513Z,6.87
2019-05-07T01:10:52.952Z,4.20
2019-05-07T01:13:23.381Z,4.92
2019-05-07T01:15:53.166Z,4.50
2019-05-07T01:18:23.376Z,5.60
2019-05-07T01:20:53.253Z,6.45
2019-05-07T01:23:23.040Z,5.75
2019-05-07T01:25:52.669Z,5.17
2019-05-07T01:28:22.340Z,7.42
2019-05-07T01:30:52.792Z,7.12
2019-05-07T01:33:35.498Z,7.00
2019-05-07T01:36:05.908Z,9.53
2019-05-07T01:38:35.420Z,8.90
2019-05-07T01:41:05.343Z,5.15
2019-05-07T01:43:34.286Z,5.15
2019-05-07T01:46:06.172Z,4.33
2019-05-07T01:48:34.992Z,7.47
2019-05-07T01:51:05.277Z,7.92
2019-05-07T01:53:34.371Z,7.85
2019-05-07T01:56:05.724Z,5.95
2019-05-07T01:58:34.464Z,7.25
2019-05-07T02:01:03.416Z,4.58
2019-05-07T02:03:33.741Z,4.20
2019-05-07T02:06:04.438Z,5.28
2019-05-07T02:08:58.249Z,8.63
2019-05-07T02:11:34.643Z,7.92
2019-05-07T02:14:08.390Z,5.20
2019-05-07T02:16:37.124Z,6.78
2019-05-07T02:19:05.969Z,6.15
2019-05-07T02:21:35.759Z,5.05
2019-05-07T02:24:04.401Z,4.50
2019-05-07T02:26:33.160Z,6.03
2019-05-07T02:29:02.699Z,8.20
2019-05-07T02:31:34.851Z,5.92
2019-05-07T02:34:03.612Z,4.63
2019-05-07T02:36:33.999Z,6.42
2019-05-07T02:39:23.744Z,4.95
2019-05-07T02:41:53.899Z,4.95
2019-05-07T02:44:23.243Z,5.17
2019-05-07T02:46:59.414Z,4.67
2019-05-07T02:49:32.961Z,5.58
2019-05-07T02:52:04.858Z,6.42
2019-05-07T02:54:35.439Z,6.58
2019-05-07T02:57:04.822Z,5.12
2019-05-07T02:59:33.823Z,5.10
2019-05-07T03:02:03.783Z,6.85
2019-05-07T03:04:33.491Z,5.70
2019-05-07T03:07:03.872Z,5.50
2019-05-07T03:09:33.328Z,3.60
2019-05-07T03:12:06.412Z,3.72
2019-05-07T03:14:37.092Z,6.83
2019-05-07T03:17:05.952Z,9.23
2019-05-07T03:19:36.485Z,4.92
2019-05-07T03:22:05.280Z,4.20
2019-05-07T03:24:38.628Z,6.03
2019-05-07T03:27:07.411Z,6.47
2019-05-07T03:29:37.668Z,5.15
2019-05-07T03:32:16.108Z,5.75
2019-05-07T03:35:07.996Z,5.17
2019-05-07T03:37:37.171Z,14.18
2019-05-07T03:40:08.876Z,6.30
2019-05-07T03:42:38.055Z,3.45
2019-05-07T03:45:13.715Z,3.70
2019-05-07T03:47:44.218Z,3.20
2019-05-07T03:50:14.678Z,2.65
2019-05-07T03:52:43.827Z,5.50
2019-05-07T03:55:14.519Z,6.80
2019-05-07T03:57:43.931Z,5.17
2019-05-07T04:00:13.815Z,7.10
2019-05-07T04:02:43.693Z,5.92
2019-05-07T04:05:14.209Z,7.22
2019-05-07T04:07:43.442Z,6.85
2019-05-07T04:10:14.743Z,8.08
2019-05-07T04:12:44.410Z,6.97
2019-05-07T04:15:16.676Z,4.40
2019-05-07T04:17:44.395Z,7.80
2019-05-07T04:20:13.819Z,5.85
2019-05-07T04:22:43.400Z,6.67
2019-05-07T04:25:34.557Z,6.28
2019-05-07T04:28:07.774Z,8.23
2019-05-07T04:30:37.251Z,6.22
2019-05-07T04:33:07.681Z,8.08
2019-05-07T04:35:38.086Z,9.40
2019-05-07T04:38:07.567Z,6.97
2019-05-07T04:40:36.573Z,7.45
2019-05-07T04:43:05.788Z,5.50
2019-05-07T04:45:34.550Z,6.12
2019-05-07T04:48:03.575Z,6.87
2019-05-07T04:50:43.192Z,7.08
2019-05-07T04:53:07.800Z,5.58
2019-05-07T04:55:37.047Z,7.40
2019-05-07T04:58:08.920Z,7.70
2019-05-07T05:00:36.171Z,9.63
2019-05-07T05:03:09.516Z,9.95
2019-05-07T05:05:38.104Z,7.15
2019-05-07T05:08:06.991Z,7.40
2019-05-07T05:10:36.301Z,8.28
2019-05-07T05:13:08.289Z,15.63
2019-05-07T05:15:36.915Z,13.00
2019-05-07T05:18:12.981Z,9.30
2019-05-07T05:20:49.264Z,11.00
2019-05-07T05:23:28.584Z,12.45
2019-05-07T05:25:57.382Z,19.40
2019-05-07T05:28:26.171Z,12.50
2019-05-07T05:30:59.342Z,14.90
2019-05-07T05:33:28.141Z,17.57
2019-05-07T05:35:57.238Z,12.55
2019-05-07T05:38:27.253Z,11.65
2019-05-07T05:40:55.897Z,10.23
2019-05-07T05:43:28.575Z,11.78
2019-05-07T05:45:58.934Z,12.13
2019-05-07T05:48:27.922Z,9.30
2019-05-07T05:51:12.687Z,12.55
2019-05-07T05:53:58.060Z,10.72
2019-05-07T05:56:32.398Z,14.18
2019-05-07T05:59:25.265Z,11.10
2019-05-07T06:02:06.382Z,11.60
2019-05-07T06:04:46.680Z,11.83
2019-05-07T06:07:17.375Z,11.55
2019-05-07T06:09:48.655Z,10.58
2019-05-07T06:12:22.204Z,15.18
2019-05-07T06:14:58.828Z,10.18
2019-05-07T06:17:37.900Z,10.43
2019-05-07T06:20:27.856Z,14.05
2019-05-07T06:23:14.551Z,12.20
2019-05-07T06:25:44.917Z,10.30
2019-05-07T06:28:13.670Z,10.00
2019-05-07T06:30:42.842Z,13.90
2019-05-07T06:33:12.447Z,10.60
2019-05-07T06:35:42.938Z,11.53
2019-05-07T06:38:15.368Z,10.00
2019-05-07T06:40:48.359Z,10.68
2019-05-07T06:43:18.943Z,15.30
2019-05-07T06:45:58.301Z,9.58
2019-05-07T06:48:41.381Z,12.23
2019-05-07T06:50:58.330Z,7.80
2019-05-07T06:53:33.299Z,7.35
2019-05-07T06:56:08.523Z,7.78
2019-05-07T06:58:38.766Z,9.48
2019-05-07T07:01:12.353Z,9.48
2019-05-07T07:03:55.151Z,11.25
2019-05-07T07:06:25.579Z,9.75
2019-05-07T07:08:55.962Z,11.65
2019-05-07T07:11:35.028Z,12.10
2019-05-07T07:14:08.320Z,9.85
2019-05-07T07:16:37.207Z,6.83
2019-05-07T07:19:05.985Z,6.53
2019-05-07T07:21:34.725Z,7.72
2019-05-07T07:24:03.972Z,7.92
2019-05-07T07:26:36.874Z,7.75
2019-05-07T07:31:36.679Z,5.42
2019-05-07T07:34:05.499Z,8.25
2019-05-07T07:36:36.072Z,9.58
2019-05-07T07:39:07.371Z,9.33
2019-05-07T07:41:38.115Z,15.05
2019-05-07T07:44:07.244Z,7.50
2019-05-07T07:46:36.256Z,7.72
2019-05-07T07:49:11.012Z,5.92
2019-05-07T07:51:41.173Z,8.95
2019-05-07T07:54:05.798Z,7.75
2019-05-07T07:56:48.905Z,6.00
2019-05-07T07:59:16.565Z,6.95
2019-05-07T08:01:47.415Z,6.17
2019-05-07T08:04:16.248Z,4.60
2019-05-07T08:06:46.269Z,7.30
2019-05-07T08:09:15.556Z,5.62
2019-05-07T08:11:44.668Z,4.75
2019-05-07T08:14:13.405Z,5.17
2019-05-07T08:16:43.047Z,7.30
2019-05-07T08:19:21.805Z,9.80
2019-05-07T08:21:42.274Z,8.65
2019-05-07T08:24:12.210Z,10.98
2019-05-07T08:26:42.845Z,8.50
2019-05-07T08:29:12.007Z,5.15
2019-05-07T08:31:54.813Z,8.38
2019-05-07T08:34:25.227Z,8.93
2019-05-07T08:36:54.110Z,3.40
2019-05-07T08:39:25.108Z,4.42
2019-05-07T08:41:53.622Z,5.55
2019-05-07T08:44:26.938Z,8.90
2019-05-07T08:47:03.610Z,4.85
2019-05-07T08:49:39.317Z,6.97
2019-05-07T08:52:03.679Z,6.25
2019-05-07T08:54:33.291Z,8.38
2019-05-07T08:57:02.716Z,7.70
2019-05-07T08:59:32.970Z,6.58
2019-05-07T09:02:02.955Z,8.75
2019-05-07T09:04:32.755Z,9.35
2019-05-07T09:07:05.358Z,6.90
2019-05-07T09:09:34.549Z,6.10
2019-05-07T09:12:03.299Z,6.58
2019-05-07T09:14:32.319Z,6.05
2019-05-07T09:17:02.478Z,4.55
2019-05-07T09:19:46.950Z,6.40
2019-05-07T09:22:06.571Z,7.75
2019-05-07T09:24:35.316Z,6.50
2019-05-07T09:27:09.021Z,8.68
2019-05-07T09:29:52.074Z,4.72
2019-05-07T09:32:22.823Z,6.83
2019-05-07T09:34:53.252Z,5.97
2019-05-07T09:37:23.768Z,5.42
2019-05-07T09:39:52.444Z,6.70
2019-05-07T09:42:22.571Z,5.70
2019-05-07T09:44:52.908Z,5.12
2019-05-07T09:47:22.104Z,6.70
2019-05-07T09:50:04.307Z,7.10
2019-05-07T09:52:22.830Z,6.10
2019-05-07T09:54:52.395Z,10.45
2019-05-07T09:57:28.322Z,10.08
2019-05-07T09:59:53.044Z,7.53
2019-05-07T10:02:23.427Z,11.10
2019-05-07T10:04:52.750Z,6.75
2019-05-07T10:07:22.334Z,9.53
2019-05-07T10:09:52.320Z,9.00
2019-05-07T10:12:26.188Z,4.55
2019-05-07T10:14:55.027Z,4.83
2019-05-07T10:17:25.730Z,4.97
2019-05-07T10:19:54.559Z,9.08
2019-05-07T10:22:23.342Z,10.85
2019-05-07T10:24:52.432Z,6.55
2019-05-07T10:27:22.396Z,7.60
2019-05-07T10:29:53.006Z,7.53
2019-05-07T10:32:21.842Z,5.17
2019-05-07T10:34:52.408Z,6.47
2019-05-07T10:37:20.955Z,6.17
2019-05-07T10:39:51.993Z,7.80
2019-05-07T10:42:22.606Z,6.03
2019-05-07T10:45:10.494Z,11.00
2019-05-07T10:47:56.499Z,5.45
2019-05-07T10:50:37.916Z,9.38
2019-05-07T10:52:57.456Z,9.45
2019-05-07T10:55:26.151Z,10.00
2019-05-07T10:57:54.830Z,6.90
2019-05-07T11:00:25.533Z,5.60
2019-05-07T11:02:54.710Z,6.05
2019-05-07T11:05:23.449Z,8.40
2019-05-07T11:07:53.877Z,8.43
2019-05-07T11:10:22.606Z,9.10
2019-05-07T11:12:51.720Z,4.80
2019-05-07T11:15:22.082Z,8.73
2019-05-07T11:17:59.822Z,6.42
2019-05-07T11:20:28.917Z,6.00
2019-05-07T11:22:57.908Z,6.15
2019-05-07T11:25:27.038Z,9.03
2019-05-07T11:27:55.803Z,7.47
2019-05-07T11:30:25.095Z,4.87
2019-05-07T11:32:53.905Z,6.15
2019-05-07T11:35:23.050Z,5.35
2019-05-07T11:37:52.223Z,8.98
2019-05-07T11:40:22.901Z,8.85
2019-05-07T11:43:09.766Z,6.75
2019-05-07T11:45:49.181Z,6.87
2019-05-07T11:48:18.975Z,9.73
2019-05-07T11:51:01.491Z,6.67
2019-05-07T11:53:24.185Z,9.35
2019-05-07T11:55:52.895Z,8.48
2019-05-07T11:58:21.971Z,5.37
2019-05-07T12:01:07.151Z,5.65
2019-05-07T12:03:35.747Z,7.20
2019-05-07T12:06:12.452Z,6.10
2019-05-07T12:08:45.908Z,7.00
2019-05-07T12:11:11.899Z,6.80
2019-05-07T12:13:42.783Z,6.42
2019-05-07T12:16:14.093Z,4.53
2019-05-07T12:18:43.069Z,8.80
2019-05-07T12:21:20.792Z,6.85
2019-05-07T12:23:42.362Z,7.58
2019-05-07T12:26:12.934Z,7.17
2019-05-07T12:28:52.176Z,6.10
2019-05-07T12:31:22.811Z,10.45
2019-05-07T12:34:05.233Z,6.25
2019-05-07T12:36:34.043Z,11.65
2019-05-07T12:39:03.030Z,8.55
2019-05-07T12:41:34.435Z,5.85
2019-05-07T12:44:06.435Z,6.40
2019-05-07T12:46:35.513Z,6.70
2019-05-07T12:49:04.744Z,4.58
2019-05-07T12:51:37.668Z,6.47
2019-05-07T12:54:25.774Z,5.10
2019-05-07T12:56:54.771Z,5.78
2019-05-07T12:59:23.893Z,4.25
2019-05-07T13:02:18.347Z,6.42
2019-05-07T13:04:37.079Z,6.42
2019-05-07T13:07:16.368Z,7.78
2019-05-07T13:09:45.569Z,4.40
2019-05-07T13:12:14.339Z,7.47
2019-05-07T13:14:42.927Z,4.55
2019-05-07T13:17:12.087Z,5.45
2019-05-07T13:19:41.981Z,5.30
2019-05-07T13:22:12.400Z,4.97
2019-05-07T13:24:42.578Z,7.08
2019-05-07T13:27:13.925Z,4.92
2019-05-07T13:29:44.900Z,5.70
2019-05-07T13:32:16.015Z,4.28
2019-05-07T13:34:45.926Z,5.70
2019-05-07T13:37:19.239Z,6.87
2019-05-07T13:39:52.759Z,6.05
2019-05-07T13:42:41.977Z,5.72
2019-05-07T13:45:22.446Z,5.22
2019-05-07T13:47:54.285Z,4.70
2019-05-07T13:50:23.040Z,8.60
2019-05-07T13:52:52.079Z,7.35
2019-05-07T13:55:21.842Z,5.17
2019-05-07T13:57:52.396Z,6.20
2019-05-07T14:00:25.958Z,5.05
2019-05-07T14:02:55.042Z,7.15
2019-05-07T14:05:23.775Z,6.30
2019-05-07T14:07:52.512Z,4.92
2019-05-07T14:10:21.369Z,7.15
2019-05-07T14:12:51.996Z,5.08
2019-05-07T14:15:20.485Z,7.35
2019-05-07T14:17:49.700Z,6.20
2019-05-07T14:20:18.875Z,5.03
2019-05-07T14:22:47.882Z,4.62
2019-05-07T14:25:16.607Z,6.03
2019-05-07T14:27:45.607Z,5.75
2019-05-07T14:30:14.615Z,7.35
2019-05-07T14:32:44.943Z,6.67
2019-05-07T14:35:22.702Z,8.45
2019-05-07T14:38:08.819Z,6.60
2019-05-07T14:40:37.463Z,6.97
2019-05-07T14:43:16.919Z,5.62
2019-05-07T14:45:45.670Z,7.92
2019-05-07T14:48:14.415Z,7.78
2019-05-07T14:50:44.903Z,6.67
2019-05-07T14:53:15.839Z,7.37
2019-05-07T14:55:44.567Z,8.13
2019-05-07T14:58:13.344Z,7.62
2019-05-07T15:00:42.654Z,10.15
2019-05-07T15:03:12.428Z,8.53
2019-05-07T15:05:42.219Z,7.95
2019-05-07T15:08:14.141Z,9.80
2019-05-07T15:10:41.907Z,11.53
2019-05-07T15:13:12.570Z,8.40
2019-05-07T15:15:41.552Z,9.55
2019-05-07T15:18:17.951Z,8.85
2019-05-07T15:20:47.116Z,10.63
2019-05-07T15:23:17.933Z,9.88
2019-05-07T15:25:47.874Z,11.53
2019-05-07T15:28:16.931Z,10.32
2019-05-07T15:30:47.211Z,9.30
2019-05-07T15:33:15.934Z,9.60
2019-05-07T15:35:45.644Z,9.70
2019-05-07T15:38:14.388Z,12.40
2019-05-07T15:40:43.090Z,9.38
2019-05-07T15:43:12.888Z,13.18
2019-05-07T15:45:41.717Z,15.50
2019-05-07T15:48:12.544Z,15.53
2019-05-07T15:50:42.910Z,12.63
2019-05-07T15:53:19.457Z,11.88
2019-05-07T15:55:48.464Z,10.75
2019-05-07T15:58:17.669Z,15.20
2019-05-07T16:00:46.679Z,11.70
2019-05-07T16:03:17.659Z,16.17
2019-05-07T16:05:46.664Z,13.43
2019-05-07T16:08:17.052Z,14.53
2019-05-07T16:10:45.710Z,14.63
2019-05-07T16:13:22.708Z,14.98
2019-05-07T16:15:52.884Z,15.03
2019-05-07T16:18:23.929Z,16.35
2019-05-07T16:20:52.555Z,13.53
2019-05-07T16:23:22.058Z,14.70
2019-05-07T16:25:52.674Z,13.18
2019-05-07T16:28:21.918Z,12.40
2019-05-07T16:30:52.096Z,15.25
2019-05-07T16:33:20.865Z,12.37
2019-05-07T16:35:49.471Z,11.83
2019-05-07T16:38:18.243Z,12.88
2019-05-07T16:40:47.191Z,12.88
2019-05-07T16:43:15.983Z,15.00
2019-05-07T16:45:44.995Z,12.53
2019-05-07T16:48:14.131Z,12.80
2019-05-07T16:50:42.700Z,17.32
2019-05-07T16:53:13.412Z,15.75
2019-05-07T16:55:43.064Z,13.58
2019-05-07T16:58:20.686Z,14.43
2019-05-07T17:01:03.502Z,13.78
2019-05-07T17:03:36.918Z,13.15
2019-05-07T17:06:12.466Z,16.82
2019-05-07T17:08:45.828Z,15.20
2019-05-07T17:11:14.885Z,10.95
2019-05-07T17:13:43.562Z,17.40
2019-05-07T17:16:12.430Z,17.40
2019-05-07T17:18:41.031Z,15.00
2019-05-07T17:21:12.935Z,14.87
2019-05-07T17:23:44.608Z,14.47
2019-05-07T17:26:12.002Z,18.73
2019-05-07T17:28:42.569Z,18.15
2019-05-07T17:31:12.396Z,15.30
2019-05-07T17:33:42.464Z,17.48
2019-05-07T17:36:12.185Z,17.70
2019-05-07T17:38:42.883Z,18.73
2019-05-07T17:41:19.643Z,16.10
2019-05-07T17:43:41.907Z,19.82
2019-05-07T17:46:12.241Z,16.55
2019-05-07T17:48:42.664Z,20.70
2019-05-07T17:51:13.061Z,15.90
2019-05-07T17:53:50.415Z,19.48
2019-05-07T17:56:12.791Z,18.35
2019-05-07T17:58:42.640Z,17.35
2019-05-07T18:01:11.842Z,18.48
2019-05-07T18:03:42.770Z,15.55
2019-05-07T18:06:12.507Z,19.23
2019-05-07T18:08:41.475Z,17.70
2019-05-07T18:11:18.566Z,15.25
2019-05-07T18:13:42.175Z,16.48
2019-05-07T18:16:13.377Z,15.40
2019-05-07T18:18:43.197Z,16.80
2019-05-07T18:21:12.592Z,15.28
2019-05-07T18:23:42.393Z,16.75
2019-05-07T18:26:28.078Z,19.60
2019-05-07T18:28:56.035Z,16.55
2019-05-07T18:31:26.348Z,18.48
2019-05-07T18:33:59.665Z,17.95
2019-05-07T18:36:28.799Z,18.95
2019-05-07T18:38:57.558Z,16.97
2019-05-07T18:41:26.555Z,20.08
2019-05-07T18:44:08.728Z,18.80
2019-05-07T18:46:28.591Z,19.65
2019-05-07T18:48:57.246Z,17.85
2019-05-07T18:51:25.999Z,18.05
2019-05-07T18:53:54.670Z,15.70
2019-05-07T18:56:23.393Z,17.67
2019-05-07T18:58:52.205Z,21.25
2019-05-07T19:01:25.661Z,18.35
2019-05-07T19:03:55.293Z,17.27
2019-05-07T19:06:24.955Z,16.52
2019-05-07T19:08:53.910Z,18.17
2019-05-07T19:11:23.091Z,18.40
2019-05-07T19:13:52.521Z,17.98
2019-05-07T19:16:23.029Z,17.73
2019-05-07T19:18:51.861Z,17.02
2019-05-07T19:21:22.384Z,17.00
2019-05-07T19:23:52.985Z,16.17
2019-05-07T19:26:22.169Z,16.20
2019-05-07T19:28:50.995Z,20.23
2019-05-07T19:31:21.890Z,19.67
2019-05-07T19:33:53.000Z,18.15
2019-05-07T19:36:22.431Z,20.17
2019-05-07T19:38:52.604Z,19.27
2019-05-07T19:41:26.263Z,20.15
2019-05-07T19:43:55.111Z,18.60
2019-05-07T19:46:23.921Z,17.75
2019-05-07T19:48:57.839Z,21.10
2019-05-07T19:51:27.846Z,18.87
2019-05-07T19:53:57.158Z,20.37
2019-05-07T19:56:26.112Z,20.48
2019-05-07T19:58:56.751Z,16.97
2019-05-07T20:01:27.130Z,21.82
2019-05-07T20:03:55.897Z,20.08
2019-05-07T20:06:24.873Z,20.88
2019-05-07T20:08:53.972Z,21.35
2019-05-07T20:11:27.390Z,23.18
2019-05-07T20:13:56.036Z,20.65
2019-05-07T20:16:25.083Z,22.22
2019-05-07T20:18:53.706Z,17.65
2019-05-07T20:21:23.007Z,22.32
2019-05-07T20:23:52.708Z,21.37
2019-05-07T20:26:23.101Z,20.55
2019-05-07T20:28:52.591Z,21.57
2019-05-07T20:31:22.763Z,18.73
2019-05-07T20:33:53.039Z,20.77
2019-05-07T20:36:21.908Z,21.97
2019-05-07T20:38:52.137Z,21.12
2019-05-07T20:41:23.081Z,16.40
2019-05-07T20:43:52.372Z,20.10
2019-05-07T20:46:21.103Z,18.85
2019-05-07T20:48:49.806Z,18.85
2019-05-07T20:51:18.767Z,20.32
2019-05-07T20:53:54.483Z,18.62
2019-05-07T20:56:25.132Z,19.40
2019-05-07T20:58:54.704Z,19.25
2019-05-07T21:01:24.708Z,20.65
2019-05-07T21:03:53.363Z,19.80
2019-05-07T21:06:22.660Z,23.22
2019-05-07T21:08:51.356Z,23.67
2019-05-07T21:11:22.450Z,25.97
2019-05-07T21:13:52.287Z,24.37
2019-05-07T21:16:22.084Z,22.85
2019-05-07T21:18:52.823Z,24.63
2019-05-07T21:21:21.944Z,21.12
2019-05-07T21:23:52.756Z,22.80
2019-05-07T21:26:22.451Z,21.23
2019-05-07T21:28:52.846Z,24.45
2019-05-07T21:31:22.993Z,24.37
2019-05-07T21:33:52.376Z,26.50
2019-05-07T21:36:22.794Z,24.12
2019-05-07T21:38:52.499Z,19.98
2019-05-07T21:41:22.661Z,24.87
2019-05-07T21:43:52.808Z,23.77
2019-05-07T21:46:22.364Z,22.85
2019-05-07T21:48:51.833Z,23.95
2019-05-07T21:51:22.852Z,24.18
2019-05-07T21:53:54.367Z,21.95
2019-05-07T21:56:24.926Z,24.10
2019-05-07T21:58:55.339Z,22.17
2019-05-07T22:01:29.746Z,25.70
2019-05-07T22:03:58.919Z,21.70
2019-05-07T22:06:27.842Z,25.62
2019-05-07T22:08:56.895Z,25.75
2019-05-07T22:11:25.832Z,25.10
2019-05-07T22:13:54.781Z,25.27
2019-05-07T22:16:24.119Z,23.42
2019-05-07T22:18:52.740Z,22.07
2019-05-07T22:21:21.396Z,24.82
2019-05-07T22:23:52.156Z,25.90
2019-05-07T22:26:25.547Z,23.85
2019-05-07T22:28:53.828Z,23.67
2019-05-07T22:31:28.453Z,24.45
2019-05-07T22:33:59.394Z,22.93
2019-05-07T22:36:34.123Z,24.30
2019-05-07T22:39:02.798Z,24.92
2019-05-07T22:41:31.947Z,24.02
2019-05-07T22:44:02.528Z,23.77
2019-05-07T22:46:32.788Z,26.00
2019-05-07T22:49:03.146Z,26.00
2019-05-07T22:51:31.981Z,28.85
2019-05-07T22:54:04.175Z,25.68
2019-05-07T22:56:49.002Z,28.05
2019-05-07T22:59:18.277Z,23.92
2019-05-07T23:01:47.020Z,27.15
2019-05-07T23:04:16.179Z,27.32
2019-05-07T23:06:44.763Z,26.20
2019-05-07T23:09:13.552Z,25.90
2019-05-07T23:11:42.255Z,26.52
2019-05-07T23:14:11.830Z,28.27
2019-05-07T23:16:42.926Z,29.77
2019-05-07T23:19:13.928Z,30.52
2019-05-07T23:21:42.565Z,27.05
2019-05-07T23:24:11.699Z,27.07
2019-05-07T23:26:48.137Z,29.50
2019-05-07T23:29:11.834Z,28.27
2019-05-07T23:31:40.943Z,27.48
2019-05-07T23:34:12.466Z,31.23
2019-05-07T23:36:42.197Z,32.13
2019-05-07T23:39:12.727Z,33.67
2019-05-07T23:41:46.421Z,33.67
2019-05-07T23:44:19.561Z,32.40
2019-05-07T23:46:48.656Z,34.35
2019-05-07T23:49:17.473Z,33.33
2019-05-07T23:51:46.531Z,31.35
2019-05-07T23:54:15.134Z,34.92
2019-05-07T23:56:43.878Z,36.08
2019-05-07T23:59:14.983Z,34.58
